createdAt,value
2018-07-28T00:00:07.999Z,88.00
2018-07-28T00:01:11.331Z,88.90
2018-07-28T00:02:14.683Z,89.20
2018-07-28T00:03:18.042Z,89.20
2018-07-28T00:04:21.404Z,88.80
2018-07-28T00:05:24.766Z,88.60
2018-07-28T00:06:28.138Z,88.60
2018-07-28T00:07:31.487Z,88.00
2018-07-28T00:08:34.860Z,88.00
2018-07-28T00:09:38.207Z,89.10
2018-07-28T00:10:41.557Z,89.20
2018-07-28T00:11:44.953Z,89.00
2018-07-28T00:12:48.341Z,89.10
2018-07-28T00:13:51.683Z,89.00
2018-07-28T00:14:55.015Z,89.10
2018-07-28T00:15:58.342Z,89.00
2018-07-28T00:17:01.791Z,89.70
2018-07-28T00:18:05.151Z,89.90
2018-07-28T00:19:08.507Z,90.10
2018-07-28T00:20:12.886Z,90.30
2018-07-28T00:21:16.203Z,90.60
2018-07-28T00:22:19.579Z,90.80
2018-07-28T00:23:22.915Z,91.20
2018-07-28T00:24:26.382Z,91.70
2018-07-28T00:25:33.947Z,91.70
2018-07-28T00:26:37.331Z,91.40
2018-07-28T00:27:41.097Z,91.30
2018-07-28T00:28:44.555Z,91.30
2018-07-28T00:29:47.920Z,91.10
2018-07-28T00:30:51.314Z,91.60
2018-07-28T00:31:54.682Z,91.30
2018-07-28T00:32:58.066Z,91.70
2018-07-28T00:34:01.386Z,92.00
2018-07-28T00:35:04.766Z,91.60
2018-07-28T00:36:08.177Z,91.90
2018-07-28T00:37:11.514Z,91.60
2018-07-28T00:38:14.859Z,91.60
2018-07-28T00:39:18.198Z,92.00
2018-07-28T00:40:21.558Z,92.50
2018-07-28T00:41:24.928Z,93.00
2018-07-28T00:42:28.249Z,93.30
2018-07-28T00:43:31.599Z,93.50
2018-07-28T00:44:35.067Z,93.90
2018-07-28T00:45:38.397Z,94.10
2018-07-28T00:46:41.754Z,93.80
2018-07-28T00:47:45.079Z,93.90
2018-07-28T00:48:48.408Z,94.10
2018-07-28T00:49:51.778Z,94.00
2018-07-28T00:50:55.090Z,94.20
2018-07-28T00:51:58.413Z,94.50
2018-07-28T00:53:01.746Z,94.60
2018-07-28T00:54:05.071Z,94.50
2018-07-28T00:55:08.620Z,94.90
2018-07-28T00:56:11.954Z,94.80
2018-07-28T00:57:15.270Z,95.30
2018-07-28T00:58:18.587Z,94.80
2018-07-28T00:59:21.924Z,95.50
2018-07-28T01:00:25.311Z,95.40
2018-07-28T01:01:28.662Z,95.00
2018-07-28T01:02:32.001Z,95.10
2018-07-28T01:04:38.428Z,95.70
2018-07-28T01:05:42.192Z,96.00
2018-07-28T01:06:45.526Z,95.90
2018-07-28T01:07:48.875Z,95.70
2018-07-28T01:08:55.427Z,96.20
2018-07-28T01:09:58.799Z,95.80
2018-07-28T01:11:02.118Z,95.60
2018-07-28T01:12:05.748Z,95.50
2018-07-28T01:13:09.324Z,95.60
2018-07-28T01:14:12.650Z,95.60
2018-07-28T01:15:16.013Z,95.50
2018-07-28T01:16:19.350Z,95.50
2018-07-28T01:17:22.665Z,95.60
2018-07-28T01:18:25.977Z,95.70
2018-07-28T01:19:29.303Z,95.60
2018-07-28T01:20:39.266Z,95.40
2018-07-28T01:21:42.599Z,95.40
2018-07-28T01:22:45.974Z,95.90
2018-07-28T01:24:52.400Z,95.90
2018-07-28T01:25:55.802Z,96.20
2018-07-28T01:26:59.145Z,96.20
2018-07-28T01:28:02.473Z,96.10
2018-07-28T01:29:11.286Z,96.20
2018-07-28T01:30:18.834Z,96.30
2018-07-28T01:31:22.249Z,96.50
2018-07-28T01:32:25.574Z,96.90
2018-07-28T01:33:28.887Z,97.20
2018-07-28T01:34:32.204Z,97.40
2018-07-28T01:35:35.525Z,97.90
2018-07-28T01:36:38.992Z,98.40
2018-07-28T01:37:42.370Z,98.50
2018-07-28T01:38:45.713Z,99.00
2018-07-28T01:39:49.054Z,99.10
2018-07-28T01:40:52.390Z,99.70
2018-07-28T01:41:55.726Z,99.60
2018-07-28T01:42:59.098Z,99.50
2018-07-28T01:44:02.412Z,99.50
2018-07-28T01:45:07.157Z,99.30
2018-07-28T01:46:10.487Z,99.40
2018-07-28T01:47:13.806Z,99.40
2018-07-28T01:48:17.132Z,99.50
2018-07-28T01:49:20.471Z,99.70
2018-07-28T01:50:23.823Z,99.90
2018-07-28T01:51:27.196Z,99.90
2018-07-28T01:52:30.531Z,99.90
2018-07-28T01:53:33.854Z,99.90
2018-07-28T01:54:37.202Z,99.90
2018-07-28T01:55:40.510Z,99.90
2018-07-28T01:56:43.875Z,99.90
2018-07-28T01:57:47.197Z,99.90
2018-07-28T01:58:50.520Z,99.90
2018-07-28T01:59:53.872Z,99.90
2018-07-28T02:00:57.195Z,99.90
2018-07-28T02:02:00.555Z,99.90
2018-07-28T02:03:03.905Z,99.90
2018-07-28T02:04:07.308Z,99.90
2018-07-28T02:05:11.015Z,99.90
2018-07-28T02:06:14.362Z,99.90
2018-07-28T02:07:17.673Z,99.90
2018-07-28T02:08:20.995Z,99.90
2018-07-28T02:09:24.347Z,99.80
2018-07-28T02:10:27.662Z,99.90
2018-07-28T02:11:30.973Z,99.90
2018-07-28T02:12:34.274Z,99.90
2018-07-28T02:13:37.623Z,99.90
2018-07-28T02:14:40.994Z,99.90
2018-07-28T02:15:44.422Z,99.90
2018-07-28T02:16:47.780Z,99.90
2018-07-28T02:17:51.107Z,99.90
2018-07-28T02:18:54.494Z,99.90
2018-07-28T02:19:57.835Z,99.90
2018-07-28T02:21:01.152Z,99.90
2018-07-28T02:22:04.654Z,99.90
2018-07-28T02:23:08.155Z,99.90
2018-07-28T02:24:11.498Z,99.90
2018-07-28T02:25:14.838Z,99.90
2018-07-28T02:26:18.142Z,99.90
2018-07-28T02:27:21.486Z,99.90
2018-07-28T02:28:24.871Z,99.90
2018-07-28T02:29:28.182Z,99.90
2018-07-28T02:30:31.514Z,99.90
2018-07-28T02:31:34.860Z,99.90
2018-07-28T02:32:38.223Z,99.90
2018-07-28T02:33:41.566Z,99.90
2018-07-28T02:34:44.921Z,99.90
2018-07-28T02:35:48.295Z,99.90
2018-07-28T02:36:51.624Z,99.90
2018-07-28T02:37:54.976Z,99.90
2018-07-28T02:38:58.366Z,99.90
2018-07-28T02:40:01.708Z,99.90
2018-07-28T02:41:05.043Z,99.90
2018-07-28T02:42:08.405Z,99.90
2018-07-28T02:43:11.754Z,99.90
2018-07-28T02:44:15.172Z,99.90
2018-07-28T02:45:18.496Z,99.90
2018-07-28T02:46:21.853Z,99.90
2018-07-28T02:47:25.190Z,99.90
2018-07-28T02:48:28.530Z,99.90
2018-07-28T02:49:31.880Z,99.90
2018-07-28T02:50:35.319Z,99.90
2018-07-28T02:51:38.658Z,99.90
2018-07-28T02:52:42.007Z,99.90
2018-07-28T02:53:45.870Z,99.90
2018-07-28T02:54:49.231Z,99.90
2018-07-28T02:55:52.571Z,99.90
2018-07-28T02:56:55.903Z,99.90
2018-07-28T02:59:02.379Z,99.90
2018-07-28T03:00:06.544Z,99.90
2018-07-28T03:01:10.404Z,99.90
2018-07-28T03:02:13.718Z,99.90
2018-07-28T03:03:17.080Z,99.90
2018-07-28T03:04:20.415Z,99.90
2018-07-28T03:05:23.742Z,99.90
2018-07-28T03:06:27.082Z,99.90
2018-07-28T03:07:30.594Z,99.90
2018-07-28T03:08:33.960Z,99.90
2018-07-28T03:09:37.290Z,99.90
2018-07-28T03:10:40.603Z,99.90
2018-07-28T03:11:43.930Z,99.90
2018-07-28T03:12:47.276Z,99.90
2018-07-28T03:13:50.674Z,99.90
2018-07-28T03:14:54.011Z,99.90
2018-07-28T03:15:57.342Z,99.90
2018-07-28T03:17:00.703Z,99.90
2018-07-28T03:18:05.812Z,99.90
2018-07-28T03:19:09.142Z,99.90
2018-07-28T03:20:12.463Z,99.90
2018-07-28T03:21:15.804Z,99.90
2018-07-28T03:22:19.159Z,99.90
2018-07-28T03:23:22.535Z,99.90
2018-07-28T03:24:25.883Z,99.90
2018-07-28T03:25:29.260Z,99.90
2018-07-28T03:26:32.588Z,99.90
2018-07-28T03:27:35.941Z,99.90
2018-07-28T03:29:42.377Z,99.90
2018-07-28T03:30:45.725Z,99.90
2018-07-28T03:31:49.038Z,99.90
2018-07-28T03:32:52.559Z,99.90
2018-07-28T03:33:55.904Z,99.90
2018-07-28T03:34:59.244Z,99.90
2018-07-28T03:36:02.618Z,99.90
2018-07-28T03:37:06.050Z,99.90
2018-07-28T03:38:09.410Z,99.90
2018-07-28T03:39:12.750Z,99.90
2018-07-28T03:40:16.106Z,99.90
2018-07-28T03:41:19.426Z,99.90
2018-07-28T03:42:22.773Z,99.90
2018-07-28T03:43:26.134Z,99.90
2018-07-28T03:44:29.478Z,99.90
2018-07-28T03:45:32.839Z,99.90
2018-07-28T03:46:36.194Z,99.90
2018-07-28T03:47:40.976Z,99.90
2018-07-28T03:48:44.348Z,99.90
2018-07-28T03:49:47.720Z,99.90
2018-07-28T03:50:51.038Z,99.90
2018-07-28T03:51:54.363Z,99.90
2018-07-28T03:52:57.719Z,99.90
2018-07-28T03:54:01.067Z,99.90
2018-07-28T03:55:05.019Z,99.90
2018-07-28T03:56:08.359Z,99.90
2018-07-28T03:57:11.755Z,99.90
2018-07-28T03:58:15.150Z,99.90
2018-07-28T03:59:18.496Z,99.90
2018-07-28T04:00:21.839Z,99.90
2018-07-28T04:01:25.167Z,99.90
2018-07-28T04:02:28.494Z,99.90
2018-07-28T04:04:34.914Z,99.90
2018-07-28T04:05:38.255Z,99.90
2018-07-28T04:06:41.615Z,99.90
2018-07-28T04:07:44.959Z,99.90
2018-07-28T04:08:48.321Z,99.90
2018-07-28T04:09:51.676Z,99.90
2018-07-28T04:10:55.022Z,99.90
2018-07-28T04:11:58.368Z,99.90
2018-07-28T04:13:01.725Z,99.90
2018-07-28T04:14:05.130Z,99.90
2018-07-28T04:15:11.170Z,99.90
2018-07-28T04:16:14.526Z,99.90
2018-07-28T04:17:17.854Z,99.90
2018-07-28T04:18:21.261Z,99.90
2018-07-28T04:19:24.627Z,99.90
2018-07-28T04:20:28.192Z,99.90
2018-07-28T04:21:31.498Z,99.90
2018-07-28T04:22:34.870Z,99.90
2018-07-28T04:23:38.182Z,99.90
2018-07-28T04:24:41.603Z,99.90
2018-07-28T04:25:44.962Z,99.90
2018-07-28T04:26:48.323Z,99.90
2018-07-28T04:27:52.124Z,99.90
2018-07-28T04:28:55.494Z,99.90
2018-07-28T04:29:58.822Z,99.90
2018-07-28T04:31:02.182Z,99.90
2018-07-28T04:32:05.494Z,99.90
2018-07-28T04:33:08.816Z,99.90
2018-07-28T04:34:12.139Z,99.90
2018-07-28T04:35:15.438Z,99.90
2018-07-28T04:36:18.804Z,99.90
2018-07-28T04:37:22.151Z,99.90
2018-07-28T04:38:25.482Z,99.90
2018-07-28T04:39:28.842Z,99.90
2018-07-28T04:40:35.195Z,99.90
2018-07-28T04:41:39.498Z,99.90
2018-07-28T04:42:43.294Z,99.90
2018-07-28T04:43:46.643Z,99.90
2018-07-28T04:44:49.986Z,99.90
2018-07-28T04:45:53.375Z,99.90
2018-07-28T04:47:59.806Z,99.90
2018-07-28T04:49:03.170Z,99.90
2018-07-28T04:50:06.566Z,99.90
2018-07-28T04:51:09.940Z,99.90
2018-07-28T04:52:13.259Z,99.90
2018-07-28T04:53:16.582Z,99.90
2018-07-28T04:54:19.899Z,99.90
2018-07-28T04:55:23.210Z,99.90
2018-07-28T04:56:26.662Z,99.90
2018-07-28T04:57:29.977Z,99.90
2018-07-28T04:58:33.572Z,99.90
2018-07-28T04:59:36.899Z,99.90
2018-07-28T05:00:40.291Z,99.90
2018-07-28T05:01:43.694Z,99.90
2018-07-28T05:02:47.023Z,99.90
2018-07-28T05:03:50.407Z,99.90
2018-07-28T05:04:54.595Z,99.90
2018-07-28T05:05:57.923Z,99.90
2018-07-28T05:07:01.284Z,99.90
2018-07-28T05:08:04.591Z,99.90
2018-07-28T05:09:09.227Z,99.90
2018-07-28T05:10:12.570Z,99.90
2018-07-28T05:11:15.887Z,99.90
2018-07-28T05:13:28.896Z,99.90
2018-07-28T05:14:35.235Z,99.90
2018-07-28T05:15:38.563Z,99.90
2018-07-28T05:16:41.910Z,99.90
2018-07-28T05:17:45.281Z,99.90
2018-07-28T05:18:48.630Z,99.90
2018-07-28T05:19:51.959Z,99.90
2018-07-28T05:20:55.836Z,99.90
2018-07-28T05:21:59.191Z,99.90
2018-07-28T05:23:02.534Z,99.90
2018-07-28T05:24:06.418Z,99.90
2018-07-28T05:25:09.766Z,99.90
2018-07-28T05:26:13.231Z,99.90
2018-07-28T05:27:16.558Z,99.90
2018-07-28T05:28:19.905Z,99.90
2018-07-28T05:29:23.214Z,99.90
2018-07-28T05:30:26.555Z,99.90
2018-07-28T05:31:29.907Z,99.90
2018-07-28T05:32:33.245Z,99.90
2018-07-28T05:33:36.587Z,99.90
2018-07-28T05:34:39.935Z,99.90
2018-07-28T05:35:43.310Z,99.90
2018-07-28T05:36:46.645Z,99.90
2018-07-28T05:37:50.126Z,99.90
2018-07-28T05:38:53.447Z,99.90
2018-07-28T05:39:56.770Z,99.90
2018-07-28T05:41:00.122Z,99.90
2018-07-28T05:42:03.467Z,99.90
2018-07-28T05:43:06.878Z,99.90
2018-07-28T05:44:10.255Z,99.90
2018-07-28T05:45:13.602Z,99.90
2018-07-28T05:46:16.949Z,99.90
2018-07-28T05:47:20.307Z,99.90
2018-07-28T05:48:23.699Z,99.90
2018-07-28T05:49:27.027Z,99.90
2018-07-28T05:50:30.346Z,99.90
2018-07-28T05:51:33.696Z,99.90
2018-07-28T05:53:46.822Z,99.90
2018-07-28T05:54:50.338Z,99.90
2018-07-28T05:55:53.679Z,99.90
2018-07-28T05:56:57.011Z,99.90
2018-07-28T05:58:00.332Z,99.90
2018-07-28T05:59:03.714Z,99.90
2018-07-28T06:00:07.266Z,99.90
2018-07-28T06:01:10.600Z,99.90
2018-07-28T06:02:13.944Z,99.90
2018-07-28T06:03:17.327Z,99.90
2018-07-28T06:04:20.723Z,99.90
2018-07-28T06:05:24.115Z,99.90
2018-07-28T06:06:27.447Z,99.90
2018-07-28T06:08:40.540Z,99.90
2018-07-28T06:09:43.892Z,99.90
2018-07-28T06:10:47.242Z,99.90
2018-07-28T06:11:50.574Z,99.90
2018-07-28T06:12:53.898Z,99.90
2018-07-28T06:13:57.260Z,99.90
2018-07-28T06:15:00.627Z,99.90
2018-07-28T06:16:03.989Z,99.90
2018-07-28T06:17:07.363Z,99.90
2018-07-28T06:18:10.728Z,99.90
2018-07-28T06:19:14.071Z,99.90
2018-07-28T06:20:17.403Z,99.90
2018-07-28T06:21:20.765Z,99.90
2018-07-28T06:22:24.094Z,99.90
2018-07-28T06:23:27.838Z,99.90
2018-07-28T06:24:31.156Z,99.90
2018-07-28T06:25:34.519Z,99.90
2018-07-28T06:26:37.851Z,99.90
2018-07-28T06:27:41.203Z,99.90
2018-07-28T06:28:44.529Z,99.90
2018-07-28T06:29:47.861Z,99.90
2018-07-28T06:30:51.231Z,99.90
2018-07-28T06:31:54.616Z,99.90
2018-07-28T06:32:57.963Z,99.90
2018-07-28T06:34:01.266Z,99.90
2018-07-28T06:35:04.637Z,99.90
2018-07-28T06:36:08.028Z,99.90
2018-07-28T06:37:11.346Z,99.90
2018-07-28T06:38:14.717Z,99.90
2018-07-28T06:39:18.026Z,99.90
2018-07-28T06:40:21.367Z,99.90
2018-07-28T06:41:24.728Z,99.90
2018-07-28T06:42:28.109Z,99.90
2018-07-28T06:43:31.477Z,99.90
2018-07-28T06:44:34.794Z,99.90
2018-07-28T06:45:38.112Z,99.90
2018-07-28T06:46:41.433Z,99.90
2018-07-28T06:47:44.820Z,99.90
2018-07-28T06:48:48.203Z,99.90
2018-07-28T06:49:51.535Z,99.90
2018-07-28T06:50:54.908Z,99.90
2018-07-28T06:51:58.231Z,99.90
2018-07-28T06:53:01.649Z,99.90
2018-07-28T06:54:05.073Z,99.90
2018-07-28T06:55:08.448Z,99.90
2018-07-28T06:56:11.783Z,99.90
2018-07-28T06:57:15.094Z,99.90
2018-07-28T06:58:18.491Z,99.90
2018-07-28T06:59:21.884Z,99.90
2018-07-28T07:00:25.278Z,99.90
2018-07-28T07:01:28.660Z,99.90
2018-07-28T07:02:31.998Z,99.90
2018-07-28T07:03:35.370Z,99.90
2018-07-28T07:04:38.744Z,99.90
2018-07-28T07:05:43.135Z,99.90
2018-07-28T07:06:46.508Z,99.90
2018-07-28T07:07:49.876Z,99.90
2018-07-28T07:08:53.233Z,99.90
2018-07-28T07:09:56.559Z,99.70
2018-07-28T07:10:59.926Z,99.80
2018-07-28T07:12:03.295Z,99.90
2018-07-28T07:13:06.690Z,99.80
2018-07-28T07:14:10.085Z,99.60
2018-07-28T07:15:13.431Z,99.50
2018-07-28T07:17:19.879Z,99.70
2018-07-28T07:18:23.218Z,99.40
2018-07-28T07:19:26.559Z,99.40
2018-07-28T07:20:29.881Z,99.30
2018-07-28T07:21:33.262Z,99.60
2018-07-28T07:22:36.848Z,99.90
2018-07-28T07:23:40.192Z,99.40
2018-07-28T07:24:43.503Z,99.00
2018-07-28T07:25:46.830Z,98.90
2018-07-28T07:26:50.551Z,98.40
2018-07-28T07:27:53.920Z,98.20
2018-07-28T07:28:57.228Z,98.40
2018-07-28T07:30:00.562Z,98.10
2018-07-28T07:31:04.045Z,98.10
2018-07-28T07:32:07.589Z,97.70
2018-07-28T07:33:10.942Z,97.40
2018-07-28T07:34:14.260Z,97.60
2018-07-28T07:35:17.779Z,97.00
2018-07-28T07:36:21.305Z,97.10
2018-07-28T07:37:24.804Z,96.80
2018-07-28T07:38:28.159Z,96.60
2018-07-28T07:39:31.520Z,96.50
2018-07-28T07:40:34.834Z,96.90
2018-07-28T07:41:38.228Z,96.10
2018-07-28T07:42:41.509Z,96.10
2018-07-28T07:43:45.147Z,95.70
2018-07-28T07:44:48.490Z,94.70
2018-07-28T07:45:51.867Z,94.80
2018-07-28T07:46:55.186Z,94.50
2018-07-28T07:47:58.572Z,94.50
2018-07-28T07:49:01.908Z,94.10
2018-07-28T07:50:05.214Z,93.70
2018-07-28T07:51:08.548Z,93.70
2018-07-28T07:52:11.988Z,93.30
2018-07-28T07:53:15.374Z,93.40
2018-07-28T07:54:18.729Z,93.40
2018-07-28T07:55:22.038Z,93.80
2018-07-28T07:56:25.345Z,92.80
2018-07-28T07:57:28.655Z,92.20
2018-07-28T07:58:32.027Z,92.20
2018-07-28T07:59:35.382Z,91.80
2018-07-28T08:00:38.712Z,92.20
2018-07-28T08:01:42.023Z,92.10
2018-07-28T08:02:45.513Z,91.70
2018-07-28T08:03:48.871Z,92.20
2018-07-28T08:04:52.249Z,91.80
2018-07-28T08:05:55.735Z,92.40
2018-07-28T08:06:59.050Z,91.50
2018-07-28T08:08:02.346Z,91.70
2018-07-28T08:09:07.888Z,91.40
2018-07-28T08:10:11.215Z,91.90
2018-07-28T08:11:14.583Z,91.10
2018-07-28T08:12:17.943Z,90.60
2018-07-28T08:13:21.266Z,91.00
2018-07-28T08:14:24.699Z,91.70
2018-07-28T08:16:31.055Z,90.70
2018-07-28T08:17:34.411Z,91.20
2018-07-28T08:18:37.755Z,90.50
2018-07-28T08:19:41.118Z,90.40
2018-07-28T08:20:44.429Z,90.20
2018-07-28T08:21:47.727Z,90.40
2018-07-28T08:22:51.138Z,90.40
2018-07-28T08:23:54.474Z,90.00
2018-07-28T08:24:57.831Z,89.20
2018-07-28T08:26:01.150Z,88.80
2018-07-28T08:27:04.492Z,90.00
2018-07-28T08:28:07.817Z,88.80
2018-07-28T08:29:11.141Z,88.10
2018-07-28T08:30:14.515Z,87.60
2018-07-28T08:31:17.875Z,87.70
2018-07-28T08:32:21.283Z,87.30
2018-07-28T08:33:24.634Z,87.30
2018-07-28T08:34:27.955Z,85.20
2018-07-28T08:35:31.346Z,84.60
2018-07-28T08:36:34.710Z,84.70
2018-07-28T08:37:38.108Z,84.70
2018-07-28T08:38:41.419Z,84.40
2018-07-28T08:39:44.730Z,82.60
2018-07-28T08:41:51.131Z,83.30
2018-07-28T08:42:54.464Z,82.50
2018-07-28T08:43:57.770Z,81.90
2018-07-28T08:45:01.152Z,82.70
2018-07-28T08:46:04.879Z,81.90
2018-07-28T08:47:09.145Z,80.50
2018-07-28T08:48:15.402Z,81.30
2018-07-28T08:49:19.503Z,81.40
2018-07-28T08:50:23.004Z,80.80
2018-07-28T08:51:27.423Z,79.80
2018-07-28T08:52:31.020Z,78.80
2018-07-28T08:53:34.459Z,78.50
2018-07-28T08:54:38.032Z,79.00
2018-07-28T08:55:41.601Z,78.90
2018-07-28T08:56:45.096Z,77.00
2018-07-28T08:57:48.546Z,77.90
2018-07-28T08:58:52.054Z,77.60
2018-07-28T08:59:55.624Z,76.80
2018-07-28T09:01:00.582Z,76.30
2018-07-28T09:02:05.706Z,76.10
2018-07-28T09:03:13.082Z,74.80
2018-07-28T09:04:16.951Z,73.40
2018-07-28T09:05:21.002Z,72.10
2018-07-28T09:06:24.909Z,72.30
2018-07-28T09:07:28.624Z,72.40
2018-07-28T09:08:32.425Z,70.10
2018-07-28T09:09:37.072Z,70.70
2018-07-28T09:10:40.930Z,70.00
2018-07-28T09:11:44.438Z,70.50
2018-07-28T09:12:47.928Z,68.90
2018-07-28T09:13:51.408Z,69.50
2018-07-28T09:14:56.854Z,69.70
2018-07-28T09:16:00.388Z,68.90
2018-07-28T09:17:03.805Z,69.30
2018-07-28T09:18:07.435Z,68.10
2018-07-28T09:19:10.894Z,68.90
2018-07-28T09:20:14.261Z,67.50
2018-07-28T09:21:18.760Z,67.70
2018-07-28T09:22:22.187Z,68.00
2018-07-28T09:23:25.774Z,66.70
2018-07-28T09:24:29.225Z,67.00
2018-07-28T09:25:32.764Z,66.80
2018-07-28T09:26:36.167Z,65.60
2018-07-28T09:27:40.104Z,67.30
2018-07-28T09:28:44.206Z,67.40
2018-07-28T09:29:49.991Z,66.30
2018-07-28T09:30:56.728Z,65.80
2018-07-28T09:32:00.148Z,65.20
2018-07-28T09:33:03.537Z,65.60
2018-07-28T09:34:07.572Z,65.00
2018-07-28T09:35:11.098Z,63.50
2018-07-28T09:36:14.679Z,62.50
2018-07-28T09:37:18.181Z,62.40
2018-07-28T09:38:22.687Z,63.00
2018-07-28T09:39:27.254Z,63.70
2018-07-28T09:40:30.821Z,61.60
2018-07-28T09:41:36.863Z,61.00
2018-07-28T09:42:40.310Z,59.80
2018-07-28T09:43:43.694Z,59.30
2018-07-28T09:44:47.104Z,59.20
2018-07-28T09:45:50.493Z,59.60
2018-07-28T09:46:53.971Z,59.30
2018-07-28T09:47:58.805Z,59.70
2018-07-28T09:49:02.289Z,58.90
2018-07-28T09:50:05.955Z,59.10
2018-07-28T09:51:09.691Z,60.50
2018-07-28T09:52:13.366Z,59.00
2018-07-28T09:53:16.847Z,59.00
2018-07-28T09:54:20.378Z,59.90
2018-07-28T09:55:23.803Z,56.70
2018-07-28T09:56:27.314Z,55.70
2018-07-28T09:57:31.174Z,56.00
2018-07-28T09:58:34.663Z,54.80
2018-07-28T09:59:38.115Z,55.60
2018-07-28T10:00:47.048Z,56.00
2018-07-28T10:01:50.442Z,54.80
2018-07-28T10:02:54.022Z,55.40
2018-07-28T10:03:57.538Z,55.40
2018-07-28T10:05:01.110Z,55.50
2018-07-28T10:06:04.896Z,55.00
2018-07-28T10:07:09.084Z,55.40
2018-07-28T10:08:12.450Z,55.30
2018-07-28T10:09:15.844Z,55.80
2018-07-28T10:11:22.426Z,54.10
2018-07-28T10:12:25.884Z,53.30
2018-07-28T10:13:29.299Z,53.30
2018-07-28T10:14:32.803Z,53.40
2018-07-28T10:15:36.302Z,53.10
2018-07-28T10:16:40.639Z,51.10
2018-07-28T10:17:44.087Z,51.50
2018-07-28T10:18:47.551Z,50.90
2018-07-28T10:19:51.833Z,50.80
2018-07-28T10:20:55.278Z,50.60
2018-07-28T10:21:58.856Z,50.60
2018-07-28T10:23:02.255Z,49.40
2018-07-28T10:24:06.400Z,48.40
2018-07-28T10:25:09.727Z,49.20
2018-07-28T10:26:13.094Z,48.90
2018-07-28T10:27:16.399Z,48.80
2018-07-28T10:28:19.690Z,49.30
2018-07-28T10:29:23.027Z,49.90
2018-07-28T10:30:26.358Z,49.60
2018-07-28T10:31:29.760Z,47.80
2018-07-28T10:32:33.066Z,48.10
2018-07-28T10:33:36.358Z,48.00
2018-07-28T10:34:39.703Z,49.20
2018-07-28T10:35:43.021Z,48.00
2018-07-28T10:36:46.398Z,47.70
2018-07-28T10:37:49.728Z,47.00
2018-07-28T10:38:53.419Z,46.90
2018-07-28T10:39:56.817Z,46.90
2018-07-28T10:41:00.170Z,47.60
2018-07-28T10:42:03.599Z,47.50
2018-07-28T10:43:06.947Z,47.40
2018-07-28T10:44:10.289Z,47.20
2018-07-28T10:45:13.623Z,48.20
2018-07-28T10:47:23.668Z,47.40
2018-07-28T10:49:30.077Z,47.60
2018-07-28T10:50:33.394Z,48.70
2018-07-28T10:51:36.742Z,48.60
2018-07-28T10:52:40.058Z,49.10
2018-07-28T10:53:43.372Z,49.70
2018-07-28T10:54:49.740Z,50.10
2018-07-28T10:55:53.051Z,50.70
2018-07-28T10:56:56.427Z,50.70
2018-07-28T10:57:59.775Z,51.60
2018-07-28T10:59:03.082Z,51.60
2018-07-28T11:00:07.425Z,51.90
2018-07-28T11:01:10.790Z,52.50
2018-07-28T11:02:14.152Z,52.60
2018-07-28T11:03:17.522Z,52.90
2018-07-28T11:04:20.826Z,54.80
2018-07-28T11:05:24.150Z,56.70
2018-07-28T11:06:27.568Z,58.30
2018-07-28T11:07:30.906Z,58.90
2018-07-28T11:08:34.219Z,59.20
2018-07-28T11:09:37.524Z,59.00
2018-07-28T11:10:40.853Z,60.80
2018-07-28T11:11:44.199Z,65.70
2018-07-28T11:12:47.506Z,67.30
2018-07-28T11:15:00.530Z,70.70
2018-07-28T11:16:04.143Z,74.00
2018-07-28T11:17:07.568Z,73.60
2018-07-28T11:18:10.885Z,77.30
2018-07-28T11:19:14.219Z,77.00
2018-07-28T11:20:17.550Z,78.90
2018-07-28T11:21:20.939Z,80.30
2018-07-28T11:22:24.278Z,80.60
2018-07-28T11:23:38.887Z,83.00
2018-07-28T11:24:42.277Z,86.00
2018-07-28T11:25:45.585Z,87.20
2018-07-28T11:26:48.907Z,86.90
2018-07-28T11:27:52.219Z,89.00
2018-07-28T11:28:55.598Z,90.70
2018-07-28T11:29:58.944Z,92.00
2018-07-28T11:31:02.287Z,91.80
2018-07-28T11:32:16.885Z,95.60
2018-07-28T11:33:31.422Z,95.90
2018-07-28T11:34:46.008Z,98.60
2018-07-28T11:36:00.659Z,99.20
2018-07-28T11:37:15.259Z,97.90
2018-07-28T11:38:29.966Z,98.20
2018-07-28T11:39:44.479Z,98.20
2018-07-28T11:40:59.027Z,98.20
2018-07-28T11:42:13.683Z,99.90
2018-07-28T11:43:28.269Z,99.90
2018-07-28T11:44:43.023Z,99.90
2018-07-28T11:45:46.389Z,96.90
2018-07-28T11:46:49.698Z,96.20
2018-07-28T11:47:53.009Z,95.10
2018-07-28T11:48:56.344Z,99.10
2018-07-28T11:49:59.720Z,95.70
2018-07-28T11:51:03.076Z,95.70
2018-07-28T11:52:06.391Z,97.60
2018-07-28T11:53:09.747Z,98.00
2018-07-28T11:54:13.068Z,95.10
2018-07-28T11:55:16.391Z,96.50
2018-07-28T11:56:19.801Z,95.70
2018-07-28T11:57:23.107Z,94.70
2018-07-28T11:58:26.603Z,95.40
2018-07-28T11:59:29.939Z,95.80
2018-07-28T12:00:33.252Z,94.40
2018-07-28T12:01:36.663Z,95.20
2018-07-28T12:03:43.422Z,94.60
2018-07-28T12:04:46.730Z,92.80
2018-07-28T12:05:50.025Z,91.00
2018-07-28T12:06:53.411Z,91.10
2018-07-28T12:07:56.759Z,90.40
2018-07-28T12:09:00.131Z,89.60
2018-07-28T12:10:03.525Z,91.00
2018-07-28T12:11:06.906Z,88.90
2018-07-28T12:12:10.222Z,87.60
2018-07-28T12:13:13.543Z,87.20
2018-07-28T12:14:16.886Z,85.60
2018-07-28T12:15:20.244Z,85.60
2018-07-28T12:16:23.559Z,87.30
2018-07-28T12:18:36.530Z,85.50
2018-07-28T12:19:39.872Z,86.80
2018-07-28T12:20:43.175Z,85.40
2018-07-28T12:21:46.493Z,85.10
2018-07-28T12:22:49.823Z,82.40
2018-07-28T12:23:53.183Z,86.40
2018-07-28T12:24:56.522Z,84.90
2018-07-28T12:25:59.848Z,84.60
2018-07-28T12:27:03.154Z,85.90
2018-07-28T12:28:06.607Z,85.30
2018-07-28T12:29:09.947Z,84.80
2018-07-28T12:30:13.333Z,86.00
2018-07-28T12:31:16.658Z,85.70
2018-07-28T12:32:19.973Z,86.10
2018-07-28T12:33:23.293Z,87.10
2018-07-28T12:34:26.636Z,87.10
2018-07-28T12:35:30.078Z,85.20
2018-07-28T12:36:33.374Z,85.80
2018-07-28T12:37:36.690Z,84.10
2018-07-28T12:38:39.983Z,85.10
2018-07-28T12:39:43.282Z,85.20
2018-07-28T12:40:46.632Z,88.00
2018-07-28T12:41:49.935Z,86.20
2018-07-28T12:42:53.252Z,85.60
2018-07-28T12:43:56.560Z,82.50
2018-07-28T12:44:59.871Z,80.40
2018-07-28T12:46:03.303Z,80.10
2018-07-28T12:47:06.686Z,80.00
2018-07-28T12:48:10.027Z,82.70
2018-07-28T12:49:13.325Z,82.30
2018-07-28T12:50:16.632Z,80.80
2018-07-28T12:51:20.004Z,82.30
2018-07-28T12:52:23.354Z,77.80
2018-07-28T12:53:26.655Z,77.70
2018-07-28T12:54:29.951Z,78.90
2018-07-28T12:55:33.270Z,79.50
2018-07-28T12:56:36.618Z,75.30
2018-07-28T12:57:39.927Z,75.80
2018-07-28T12:58:43.290Z,76.80
2018-07-28T12:59:46.607Z,73.40
2018-07-28T13:00:49.903Z,73.20
2018-07-28T13:01:53.206Z,72.70
2018-07-28T13:02:56.529Z,73.50
2018-07-28T13:03:59.918Z,71.50
2018-07-28T13:05:03.252Z,71.80
2018-07-28T13:06:06.595Z,71.60
2018-07-28T13:07:09.899Z,72.60
2018-07-28T13:08:13.211Z,72.30
2018-07-28T13:09:16.597Z,71.60
2018-07-28T13:10:20.007Z,69.60
2018-07-28T13:11:23.271Z,70.40
2018-07-28T13:12:26.687Z,71.10
2018-07-28T13:13:29.957Z,67.90
2018-07-28T13:14:33.342Z,66.60
2018-07-28T13:15:36.662Z,66.80
2018-07-28T13:16:39.999Z,66.40
2018-07-28T13:17:43.331Z,68.30
2018-07-28T13:18:46.655Z,66.80
2018-07-28T13:19:49.990Z,65.10
2018-07-28T13:20:53.671Z,66.30
2018-07-28T13:21:57.015Z,65.90
2018-07-28T13:23:00.358Z,65.30
2018-07-28T13:24:03.746Z,64.80
2018-07-28T13:25:07.107Z,64.70
2018-07-28T13:26:10.434Z,65.00
2018-07-28T13:27:13.748Z,65.30
2018-07-28T13:28:17.091Z,64.30
2018-07-28T13:29:20.430Z,63.80
2018-07-28T13:30:23.768Z,64.50
2018-07-28T13:31:27.074Z,64.80
2018-07-28T13:32:30.372Z,63.30
2018-07-28T13:33:33.663Z,63.80
2018-07-28T13:34:37.023Z,61.90
2018-07-28T13:35:40.325Z,63.00
2018-07-28T13:36:43.680Z,62.90
2018-07-28T13:37:46.985Z,62.60
2018-07-28T13:38:50.302Z,62.30
2018-07-28T13:39:53.640Z,62.90
2018-07-28T13:40:56.986Z,63.20
2018-07-28T13:42:00.354Z,63.80
2018-07-28T13:43:03.647Z,64.70
2018-07-28T13:44:07.094Z,61.70
2018-07-28T13:45:10.450Z,64.00
2018-07-28T13:46:13.747Z,60.90
2018-07-28T13:47:17.078Z,61.60
2018-07-28T13:48:20.381Z,61.30
2018-07-28T13:49:23.714Z,60.60
2018-07-28T13:50:27.035Z,61.00
2018-07-28T13:51:30.347Z,60.50
2018-07-28T13:52:33.693Z,61.00
2018-07-28T13:53:37.075Z,61.00
2018-07-28T13:54:40.444Z,61.80
2018-07-28T13:55:43.759Z,62.40
2018-07-28T13:56:47.058Z,60.40
2018-07-28T13:58:53.507Z,58.30
2018-07-28T13:59:56.840Z,59.00